createdAt,value
2018-11-14T00:01:41.497Z,5.68
2018-11-14T00:04:09.925Z,5.64
2018-11-14T00:06:38.309Z,5.63
2018-11-14T00:09:09.178Z,5.69
2018-11-14T00:11:37.601Z,5.70
2018-11-14T00:14:06.401Z,5.69
2018-11-14T00:16:34.986Z,5.66
2018-11-14T00:19:03.397Z,5.69
2018-11-14T00:21:31.772Z,5.71
2018-11-14T00:24:00.173Z,5.69
2018-11-14T00:26:28.845Z,5.68
2018-11-14T00:28:57.489Z,5.64
2018-11-14T00:31:25.694Z,5.64
2018-11-14T00:33:54.069Z,5.68
2018-11-14T00:36:22.665Z,5.65
2018-11-14T00:38:51.082Z,5.66
2018-11-14T00:41:19.473Z,5.65
2018-11-14T00:43:47.886Z,5.61
2018-11-14T00:46:16.279Z,5.70
2018-11-14T00:48:44.669Z,5.75
2018-11-14T00:51:13.069Z,5.73
2018-11-14T00:53:41.575Z,5.74
2018-11-14T00:56:09.944Z,5.74
2018-11-14T00:58:38.372Z,5.67
2018-11-14T01:01:06.755Z,5.66
2018-11-14T01:03:35.166Z,5.71
2018-11-14T01:06:03.573Z,5.77
2018-11-14T01:08:31.955Z,5.78
2018-11-14T01:11:00.313Z,5.90
2018-11-14T01:13:28.717Z,5.87
2018-11-14T01:15:57.088Z,5.77
2018-11-14T01:18:25.481Z,5.62
2018-11-14T01:20:53.844Z,5.52
2018-11-14T01:23:22.246Z,5.45
2018-11-14T01:25:50.641Z,5.53
2018-11-14T01:28:19.009Z,5.58
2018-11-14T01:30:47.375Z,5.55
2018-11-14T01:33:15.771Z,5.33
2018-11-14T01:35:44.152Z,5.21
2018-11-14T01:38:12.537Z,5.14
2018-11-14T01:40:41.381Z,5.11
2018-11-14T01:43:09.801Z,5.10
2018-11-14T01:45:38.212Z,5.05
2018-11-14T01:48:06.587Z,5.10
2018-11-14T01:50:34.973Z,5.18
2018-11-14T01:53:03.362Z,5.21
2018-11-14T01:55:31.798Z,5.30
2018-11-14T01:58:00.309Z,5.28
2018-11-14T02:00:28.691Z,5.02
2018-11-14T02:02:57.055Z,4.87
2018-11-14T02:05:25.500Z,4.78
2018-11-14T02:07:53.857Z,4.78
2018-11-14T02:10:22.255Z,4.78
2018-11-14T02:12:50.882Z,4.78
2018-11-14T02:15:21.525Z,4.76
2018-11-14T02:17:49.954Z,4.74
2018-11-14T02:20:18.389Z,4.62
2018-11-14T02:22:47.108Z,4.52
2018-11-14T02:25:16.024Z,4.58
2018-11-14T02:27:44.422Z,4.72
2018-11-14T02:30:14.977Z,4.76
2018-11-14T02:32:43.355Z,4.75
2018-11-14T02:35:11.831Z,4.75
2018-11-14T02:37:41.261Z,4.71
2018-11-14T02:40:11.985Z,4.67
2018-11-14T02:42:40.532Z,4.67
2018-11-14T02:45:09.281Z,4.69
2018-11-14T02:47:37.720Z,4.79
2018-11-14T02:50:06.977Z,4.89
2018-11-14T02:52:35.461Z,4.96
2018-11-14T02:55:03.894Z,5.06
2018-11-14T02:57:32.312Z,5.10
2018-11-14T03:00:00.701Z,5.10
2018-11-14T03:02:29.075Z,5.06
2018-11-14T03:04:57.479Z,5.04
2018-11-14T03:07:25.938Z,4.98
2018-11-14T03:09:54.376Z,5.02
2018-11-14T03:12:22.779Z,4.98
2018-11-14T03:14:51.142Z,4.88
2018-11-14T03:17:19.540Z,4.77
2018-11-14T03:19:48.217Z,4.74
2018-11-14T03:22:16.654Z,4.70
2018-11-14T03:24:45.098Z,4.73
2018-11-14T03:27:13.506Z,4.65
2018-11-14T03:29:41.929Z,4.66
2018-11-14T03:32:10.366Z,4.61
2018-11-14T03:34:38.833Z,4.65
2018-11-14T03:37:07.255Z,4.68
2018-11-14T03:39:35.700Z,4.66
2018-11-14T03:42:04.149Z,4.70
2018-11-14T03:44:32.569Z,4.71
2018-11-14T03:47:00.985Z,4.86
2018-11-14T03:49:29.413Z,4.85
2018-11-14T03:51:57.818Z,4.82
2018-11-14T03:54:26.260Z,4.65
2018-11-14T03:56:54.664Z,4.48
2018-11-14T03:59:23.249Z,4.38
2018-11-14T04:01:51.672Z,4.32
2018-11-14T04:04:20.081Z,4.23
2018-11-14T04:06:48.559Z,4.17
2018-11-14T04:09:17.158Z,4.19
2018-11-14T04:11:45.446Z,4.20
2018-11-14T04:14:13.849Z,4.33
2018-11-14T04:16:42.300Z,4.42
2018-11-14T04:19:10.714Z,4.43
2018-11-14T04:21:39.137Z,4.48
2018-11-14T04:24:07.539Z,4.56
2018-11-14T04:26:35.925Z,4.61
2018-11-14T04:29:04.349Z,4.57
2018-11-14T04:31:32.749Z,4.41
2018-11-14T04:34:01.201Z,4.46
2018-11-14T04:36:29.635Z,4.51
2018-11-14T04:38:58.010Z,4.46
2018-11-14T04:41:26.409Z,4.38
2018-11-14T04:43:54.775Z,4.25
2018-11-14T04:46:23.202Z,4.23
2018-11-14T04:48:51.577Z,4.14
2018-11-14T04:51:19.994Z,4.04
2018-11-14T04:53:48.382Z,4.00
2018-11-14T04:56:16.818Z,3.99
2018-11-14T04:58:45.193Z,4.02
2018-11-14T05:01:13.582Z,4.05
2018-11-14T05:03:41.957Z,4.05
2018-11-14T05:06:10.353Z,4.02
2018-11-14T05:08:38.730Z,3.99
2018-11-14T05:11:07.125Z,3.99
2018-11-14T05:13:35.493Z,3.92
2018-11-14T05:16:03.946Z,3.88
2018-11-14T05:18:32.317Z,3.81
2018-11-14T05:21:00.694Z,3.79
2018-11-14T05:23:29.098Z,3.78
2018-11-14T05:25:57.473Z,3.83
2018-11-14T05:28:25.845Z,3.75
2018-11-14T05:30:54.242Z,3.70
2018-11-14T05:33:22.639Z,3.67
2018-11-14T05:35:51.034Z,3.66
2018-11-14T05:38:19.417Z,3.65
2018-11-14T05:40:47.826Z,3.68
2018-11-14T05:43:16.206Z,3.74
2018-11-14T05:45:44.617Z,3.72
2018-11-14T05:48:13.530Z,3.79
2018-11-14T05:50:41.906Z,3.82
2018-11-14T05:53:10.289Z,3.83
2018-11-14T05:55:38.973Z,3.79
2018-11-14T05:58:07.329Z,3.74
2018-11-14T06:00:35.789Z,3.76
2018-11-14T06:03:04.876Z,3.78
2018-11-14T06:05:33.346Z,3.72
2018-11-14T06:08:01.721Z,3.66
2018-11-14T06:10:30.113Z,3.62
2018-11-14T06:12:58.511Z,3.54
2018-11-14T06:15:26.985Z,3.58
2018-11-14T06:17:56.493Z,3.58
2018-11-14T06:20:24.868Z,3.71
2018-11-14T06:22:53.610Z,3.79
2018-11-14T06:25:26.802Z,3.86
2018-11-14T06:27:56.105Z,3.92
2018-11-14T06:30:24.818Z,3.94
2018-11-14T06:32:53.833Z,3.92
2018-11-14T06:35:22.450Z,3.91
2018-11-14T06:37:51.605Z,3.96
2018-11-14T06:40:20.196Z,4.03
2018-11-14T06:42:48.640Z,4.01
2018-11-14T06:45:21.125Z,3.89
2018-11-14T06:47:50.757Z,3.78
2018-11-14T06:50:19.133Z,3.77
2018-11-14T06:52:48.589Z,3.77
2018-11-14T06:55:17.893Z,3.78
2018-11-14T06:57:46.294Z,3.82
2018-11-14T07:00:23.289Z,3.79
2018-11-14T07:02:52.157Z,3.86
2018-11-14T07:05:24.676Z,3.89
2018-11-14T07:07:53.157Z,3.96
2018-11-14T07:10:24.946Z,3.98
2018-11-14T07:12:53.374Z,4.03
2018-11-14T07:15:23.062Z,4.22
2018-11-14T07:17:52.579Z,4.20
2018-11-14T07:20:27.346Z,4.23
2018-11-14T07:22:55.741Z,4.29
2018-11-14T07:25:24.161Z,4.33
2018-11-14T07:27:52.558Z,4.41
2018-11-14T07:30:22.541Z,4.45
2018-11-14T07:32:54.268Z,4.51
2018-11-14T07:35:22.726Z,4.65
2018-11-14T07:38:07.825Z,4.59
2018-11-14T07:40:36.232Z,4.65
2018-11-14T07:43:04.674Z,4.75
2018-11-14T07:45:33.087Z,4.74
2018-11-14T07:48:01.490Z,4.76
2018-11-14T07:50:31.046Z,4.89
2018-11-14T07:52:59.569Z,4.97
2018-11-14T07:55:27.942Z,4.96
2018-11-14T07:57:56.377Z,5.16
2018-11-14T08:00:24.773Z,5.22
2018-11-14T08:02:53.169Z,5.32
2018-11-14T08:05:21.590Z,5.46
2018-11-14T08:07:50.071Z,5.65
2018-11-14T08:10:18.606Z,5.78
2018-11-14T08:12:46.981Z,5.99
2018-11-14T08:15:15.367Z,6.23
2018-11-14T08:17:43.760Z,6.14
2018-11-14T08:20:13.085Z,6.24
2018-11-14T08:22:42.100Z,6.27
2018-11-14T08:25:10.577Z,6.34
2018-11-14T08:27:40.538Z,6.31
2018-11-14T08:30:13.052Z,6.47
2018-11-14T08:32:44.318Z,6.51
2018-11-14T08:35:15.693Z,6.49
2018-11-14T08:37:46.412Z,6.45
2018-11-14T08:40:18.263Z,6.53
2018-11-14T08:42:46.805Z,6.51
2018-11-14T08:45:15.177Z,6.56
2018-11-14T08:47:43.662Z,6.60
2018-11-14T08:50:15.304Z,6.55
2018-11-14T08:52:44.038Z,6.61
2018-11-14T08:55:13.184Z,6.66
2018-11-14T08:57:42.573Z,6.73
2018-11-14T09:00:14.317Z,6.83
2018-11-14T09:02:43.149Z,6.89
2018-11-14T09:05:11.649Z,7.06
2018-11-14T09:07:40.084Z,7.07
2018-11-14T09:10:11.408Z,7.18
2018-11-14T09:12:40.306Z,7.19
2018-11-14T09:15:10.466Z,7.25
2018-11-14T09:17:38.963Z,7.38
2018-11-14T09:20:08.702Z,7.42
2018-11-14T09:22:37.378Z,7.55
2018-11-14T09:25:07.718Z,7.61
2018-11-14T09:27:36.113Z,7.68
2018-11-14T09:30:05.794Z,7.78
2018-11-14T09:32:34.202Z,7.88
2018-11-14T09:35:02.586Z,8.02
2018-11-14T09:37:30.981Z,8.12
2018-11-14T09:39:59.405Z,8.17
2018-11-14T09:42:27.822Z,8.28
2018-11-14T09:44:57.697Z,8.38
2018-11-14T09:47:28.063Z,8.44
2018-11-14T09:49:58.046Z,8.47
2018-11-14T09:52:28.258Z,8.47
2018-11-14T09:54:59.227Z,8.43
2018-11-14T09:57:29.544Z,8.48
2018-11-14T10:00:00.839Z,8.47
2018-11-14T10:02:31.126Z,8.52
2018-11-14T10:05:00.983Z,8.61
2018-11-14T10:07:32.421Z,8.66
2018-11-14T10:10:03.893Z,8.67
2018-11-14T10:12:34.075Z,8.73
2018-11-14T10:15:03.663Z,8.61
2018-11-14T10:17:34.264Z,8.55
2018-11-14T10:20:03.050Z,8.64
2018-11-14T10:22:33.641Z,8.73
2018-11-14T10:25:02.967Z,8.83
2018-11-14T10:27:32.999Z,8.95
2018-11-14T10:30:12.562Z,9.06
2018-11-14T10:32:41.846Z,9.19
2018-11-14T10:35:11.132Z,9.19
2018-11-14T10:37:40.324Z,9.24
2018-11-14T10:40:11.594Z,9.34
2018-11-14T10:42:42.088Z,9.39
2018-11-14T10:45:14.417Z,9.48
2018-11-14T10:47:45.875Z,9.55
2018-11-14T10:50:17.218Z,9.52
2018-11-14T10:52:46.377Z,9.54
2018-11-14T10:55:17.918Z,9.56
2018-11-14T10:57:46.820Z,9.69
2018-11-14T11:00:23.370Z,9.78
2018-11-14T11:02:57.665Z,9.88
2018-11-14T11:06:30.016Z,9.93
2018-11-14T11:09:03.817Z,10.00
2018-11-14T11:11:36.720Z,10.06
2018-11-14T11:14:10.570Z,10.08
2018-11-14T11:16:44.474Z,10.17
2018-11-14T11:19:26.189Z,10.24
2018-11-14T11:21:55.034Z,10.31
2018-11-14T11:24:24.078Z,10.40
2018-11-14T11:26:52.785Z,10.51
2018-11-14T11:29:21.549Z,10.34
2018-11-14T11:31:50.621Z,10.51
2018-11-14T11:34:19.400Z,10.70
2018-11-14T11:36:48.237Z,10.83
2018-11-14T11:39:18.310Z,10.82
2018-11-14T11:41:47.430Z,10.87
2018-11-14T11:44:16.331Z,10.86
2018-11-14T11:46:46.993Z,10.92
2018-11-14T11:49:15.810Z,10.90
2018-11-14T11:51:44.766Z,11.00
2018-11-14T11:54:13.532Z,11.06
2018-11-14T11:56:42.230Z,11.08
2018-11-14T11:59:11.268Z,11.16
2018-11-14T12:01:39.920Z,11.30
2018-11-14T12:04:10.858Z,11.39
2018-11-14T12:06:41.074Z,11.26
2018-11-14T12:09:12.864Z,11.35
2018-11-14T12:11:41.330Z,11.36
2018-11-14T12:14:09.809Z,11.41
2018-11-14T12:16:38.295Z,11.45
2018-11-14T12:19:06.797Z,11.54
2018-11-14T12:21:35.170Z,11.47
2018-11-14T12:24:03.604Z,11.34
2018-11-14T12:26:32.057Z,11.50
2018-11-14T12:29:00.542Z,11.65
2018-11-14T12:31:29.021Z,11.79
2018-11-14T12:33:57.433Z,11.89
2018-11-14T12:36:25.857Z,11.95
2018-11-14T12:38:54.324Z,11.92
2018-11-14T12:41:22.678Z,11.86
2018-11-14T12:43:51.053Z,12.11
2018-11-14T12:46:19.515Z,12.23
2018-11-14T12:48:47.904Z,12.31
2018-11-14T12:51:16.342Z,12.39
2018-11-14T12:53:44.738Z,12.57
2018-11-14T12:56:13.146Z,12.46
2018-11-14T12:58:41.521Z,12.55
2018-11-14T13:01:09.977Z,12.65
2018-11-14T13:03:38.354Z,12.81
2018-11-14T13:06:06.805Z,12.91
2018-11-14T13:08:35.222Z,12.96
2018-11-14T13:11:03.633Z,13.08
2018-11-14T13:13:37.201Z,13.15
2018-11-14T13:16:06.109Z,13.23
2018-11-14T13:18:34.460Z,13.33
2018-11-14T13:21:02.857Z,13.27
2018-11-14T13:23:31.273Z,13.46
2018-11-14T13:25:59.781Z,13.73
2018-11-14T13:28:28.185Z,14.08
2018-11-14T13:30:56.622Z,14.39
2018-11-14T13:33:24.981Z,14.61
2018-11-14T13:35:53.380Z,14.80
2018-11-14T13:38:21.753Z,15.05
2018-11-14T13:40:50.185Z,15.16
2018-11-14T13:43:18.670Z,15.23
2018-11-14T13:45:47.065Z,15.38
2018-11-14T13:48:15.448Z,15.53
2018-11-14T13:50:44.174Z,15.61
2018-11-14T13:53:12.325Z,16.09
2018-11-14T13:55:40.733Z,16.60
2018-11-14T13:58:09.118Z,16.87
2018-11-14T14:00:37.522Z,17.22
2018-11-14T14:03:06.114Z,17.49
2018-11-14T14:05:34.533Z,17.77
2018-11-14T14:08:02.947Z,17.85
2018-11-14T14:10:31.362Z,17.81
2018-11-14T14:12:59.777Z,17.64
2018-11-14T14:15:28.596Z,17.59
2018-11-14T14:17:57.001Z,17.21
2018-11-14T14:20:25.637Z,16.58
2018-11-14T14:22:54.037Z,15.94
2018-11-14T14:25:23.200Z,15.53
2018-11-14T14:27:51.617Z,15.04
2018-11-14T14:30:22.189Z,14.63
2018-11-14T14:32:50.636Z,14.30
2018-11-14T14:35:20.173Z,13.96
2018-11-14T14:37:48.574Z,13.79
2018-11-14T14:40:20.049Z,13.63
2018-11-14T14:42:48.551Z,13.39
2018-11-14T14:45:18.785Z,13.25
2018-11-14T14:47:47.190Z,12.97
2018-11-14T14:50:16.805Z,12.80
2018-11-14T14:52:47.769Z,12.62
2018-11-14T14:55:19.895Z,12.57
2018-11-14T14:57:48.915Z,12.52
2018-11-14T15:00:20.906Z,12.44
2018-11-14T15:02:49.690Z,12.23
2018-11-14T15:05:22.116Z,12.11
2018-11-14T15:07:50.727Z,11.90
2018-11-14T15:10:20.955Z,11.84
2018-11-14T15:12:49.652Z,11.72
2018-11-14T15:15:18.388Z,11.53
2018-11-14T15:17:47.145Z,11.36
2018-11-14T15:20:18.747Z,11.30
2018-11-14T15:22:48.045Z,11.22
2018-11-14T15:25:18.889Z,11.03
2018-11-14T15:27:48.041Z,10.91
2018-11-14T15:30:19.614Z,10.73
2018-11-14T15:32:48.630Z,10.59
2018-11-14T15:35:17.305Z,10.42
2018-11-14T15:37:46.049Z,10.30
2018-11-14T15:40:16.162Z,10.20
2018-11-14T15:43:03.214Z,10.05
2018-11-14T15:45:32.161Z,9.96
2018-11-14T15:48:01.217Z,9.86
2018-11-14T15:50:30.699Z,9.71
2018-11-14T15:53:04.451Z,9.62
2018-11-14T15:55:33.151Z,9.49
2018-11-14T15:58:06.295Z,9.35
2018-11-14T16:00:34.922Z,9.31
2018-11-14T16:03:06.073Z,9.19
2018-11-14T16:05:37.708Z,9.07
2018-11-14T16:08:06.450Z,9.01
2018-11-14T16:10:35.179Z,9.01
2018-11-14T16:13:09.693Z,9.02
2018-11-14T16:15:38.486Z,9.05
2018-11-14T16:18:07.201Z,9.06
2018-11-14T16:20:35.778Z,9.00
2018-11-14T16:23:05.430Z,8.93
2018-11-14T16:31:20.321Z,8.75
2018-11-14T16:33:48.761Z,8.71
2018-11-14T16:36:17.132Z,8.67
2018-11-14T16:38:45.489Z,8.63
2018-11-14T16:41:14.034Z,8.57
2018-11-14T16:43:42.447Z,8.51
2018-11-14T16:46:11.094Z,8.49
2018-11-14T16:48:39.518Z,8.55
2018-11-14T16:51:07.899Z,8.52
2018-11-14T16:53:36.285Z,8.50
2018-11-14T16:56:04.802Z,8.47
2018-11-14T16:58:33.205Z,8.43
2018-11-14T17:01:01.615Z,8.37
2018-11-14T17:03:30.007Z,8.37
2018-11-14T17:05:58.521Z,8.32
2018-11-14T17:08:26.917Z,8.29
2018-11-14T17:10:55.298Z,8.24
2018-11-14T17:13:23.691Z,8.22
2018-11-14T17:15:52.113Z,8.16
2018-11-14T17:18:20.625Z,8.13
2018-11-14T17:20:49.005Z,8.08
2018-11-14T17:23:18.033Z,8.00
2018-11-14T17:25:46.725Z,7.98
2018-11-14T17:28:15.521Z,7.97
2018-11-14T17:30:44.345Z,7.90
2018-11-14T17:33:13.030Z,7.82
2018-11-14T17:35:42.159Z,7.77
2018-11-14T17:38:12.584Z,7.70
2018-11-14T17:40:43.074Z,7.65
2018-11-14T17:43:11.833Z,7.58
2018-11-14T17:45:40.808Z,7.54
2018-11-14T17:48:09.547Z,7.47
2018-11-14T17:50:38.221Z,7.43
2018-11-14T17:53:10.566Z,7.26
2018-11-14T17:55:39.974Z,7.05
2018-11-14T17:58:10.666Z,6.90
2018-11-14T18:00:39.351Z,6.71
2018-11-14T18:03:08.130Z,6.62
2018-11-14T18:05:36.711Z,6.50
2018-11-14T18:08:05.442Z,6.46
2018-11-14T18:10:38.387Z,6.43
2018-11-14T18:13:07.041Z,6.61
2018-11-14T18:15:35.742Z,6.58
2018-11-14T18:18:04.563Z,6.50
2018-11-14T18:20:36.135Z,6.45
2018-11-14T18:23:04.573Z,6.40
2018-11-14T18:25:32.965Z,6.37
2018-11-14T18:28:01.378Z,6.30
2018-11-14T18:30:30.860Z,6.22
2018-11-14T18:33:00.209Z,6.20
2018-11-14T18:35:28.860Z,6.09
2018-11-14T18:37:58.228Z,6.04
2018-11-14T18:40:29.099Z,6.05
2018-11-14T18:42:57.567Z,6.01
2018-11-14T18:45:30.859Z,6.01
2018-11-14T18:48:00.201Z,5.97
2018-11-14T18:50:28.791Z,5.89
2018-11-14T18:52:57.222Z,5.89
2018-11-14T18:55:27.058Z,5.80
2018-11-14T18:57:55.820Z,5.80
2018-11-14T19:00:26.573Z,5.83
2018-11-14T19:02:54.990Z,5.79
2018-11-14T19:05:23.417Z,5.79
2018-11-14T19:10:50.642Z,5.90
2018-11-14T19:13:19.094Z,6.04
2018-11-14T19:15:47.500Z,6.06
2018-11-14T19:18:15.910Z,6.03
2018-11-14T19:20:44.297Z,6.01
2018-11-14T19:23:12.782Z,5.98
2018-11-14T19:25:41.178Z,5.91
2018-11-14T19:28:09.592Z,5.83
2018-11-14T19:30:38.719Z,5.75
2018-11-14T19:33:07.170Z,5.66
2018-11-14T19:35:35.601Z,5.65
2018-11-14T19:38:04.121Z,5.61
2018-11-14T19:40:33.761Z,5.61
2018-11-14T19:43:03.320Z,5.64
2018-11-14T19:45:33.862Z,5.67
2018-11-14T19:48:02.318Z,5.67
2018-11-14T19:50:30.739Z,5.56
2018-11-14T19:52:59.212Z,5.48
2018-11-14T19:55:28.315Z,5.42
2018-11-14T19:57:57.765Z,5.45
2018-11-14T20:00:27.491Z,5.54
2018-11-14T20:02:55.942Z,5.57
2018-11-14T20:05:24.470Z,5.55
2018-11-14T20:07:52.993Z,5.54
2018-11-14T20:10:25.856Z,5.58
2018-11-14T20:12:54.564Z,5.56
2018-11-14T20:15:24.333Z,5.59
2018-11-14T20:17:52.853Z,5.57
2018-11-14T20:20:23.545Z,5.54
2018-11-14T20:22:51.962Z,5.51
2018-11-14T20:25:20.502Z,5.45
2018-11-14T20:27:49.044Z,5.35
2018-11-14T20:30:20.269Z,5.34
2018-11-14T20:32:49.303Z,5.41
2018-11-14T20:35:18.947Z,5.38
2018-11-14T20:37:47.332Z,5.37
2018-11-14T20:40:17.013Z,5.45
2018-11-14T20:42:45.971Z,5.38
2018-11-14T20:45:16.821Z,5.40
2018-11-14T20:47:45.382Z,5.38
2018-11-14T20:50:16.081Z,5.42
2018-11-14T20:52:45.141Z,5.56
2018-11-14T20:55:13.800Z,5.66
2018-11-14T20:57:43.469Z,5.63
2018-11-14T21:00:15.243Z,5.58
2018-11-14T21:02:43.765Z,5.60
2018-11-14T21:05:13.054Z,5.62
2018-11-14T21:07:42.528Z,5.60
2018-11-14T21:10:12.864Z,5.64
2018-11-14T21:12:41.364Z,5.61
2018-11-14T21:15:11.658Z,5.59
2018-11-14T21:17:40.180Z,5.57
2018-11-14T21:20:09.109Z,5.46
2018-11-14T21:22:38.369Z,5.51
2018-11-14T21:25:08.209Z,5.44
2018-11-14T21:27:36.602Z,5.36
2018-11-14T21:30:07.102Z,5.35
2018-11-14T21:32:35.473Z,5.30
2018-11-14T21:35:03.902Z,5.20
2018-11-14T21:37:32.253Z,5.25
2018-11-14T21:40:00.659Z,5.28
2018-11-14T21:42:29.070Z,5.26
2018-11-14T21:47:27.470Z,5.15
2018-11-14T21:49:55.866Z,5.19
2018-11-14T21:52:24.245Z,5.19
2018-11-14T21:54:52.633Z,5.23
2018-11-14T21:57:21.038Z,5.17
2018-11-14T21:59:49.490Z,5.18
2018-11-14T22:02:17.841Z,5.22
2018-11-14T22:04:46.233Z,5.27
2018-11-14T22:07:14.641Z,5.30
2018-11-14T22:09:43.114Z,5.29
2018-11-14T22:12:11.569Z,5.38
2018-11-14T22:14:40.020Z,5.37
2018-11-14T22:17:08.395Z,5.39
2018-11-14T22:19:36.839Z,5.41
2018-11-14T22:22:05.583Z,5.47
2018-11-14T22:24:33.983Z,5.45
2018-11-14T22:27:02.368Z,5.45
2018-11-14T22:29:30.790Z,5.49
2018-11-14T22:31:59.162Z,5.48
2018-11-14T22:34:27.592Z,5.44
2018-11-14T22:36:55.957Z,5.43
2018-11-14T22:39:24.368Z,5.43
2018-11-14T22:41:52.808Z,5.44
2018-11-14T22:44:21.186Z,5.45
2018-11-14T22:46:49.604Z,5.46
2018-11-14T22:49:17.994Z,5.50
2018-11-14T22:51:46.374Z,5.44
2018-11-14T22:54:14.742Z,5.42
2018-11-14T22:56:43.165Z,5.45
2018-11-14T22:59:11.562Z,5.40
2018-11-14T23:01:40.015Z,5.42
2018-11-14T23:04:08.412Z,5.40
2018-11-14T23:06:36.834Z,5.38
2018-11-14T23:09:08.458Z,5.38
2018-11-14T23:11:36.873Z,5.40
2018-11-14T23:14:05.743Z,5.40
2018-11-14T23:16:34.215Z,5.37
2018-11-14T23:19:02.660Z,5.37
2018-11-14T23:21:31.193Z,5.35
2018-11-14T23:23:59.960Z,5.40
2018-11-14T23:26:28.521Z,5.43
2018-11-14T23:28:56.938Z,5.40
2018-11-14T23:31:25.363Z,5.38
2018-11-14T23:33:53.816Z,5.47
2018-11-14T23:36:22.261Z,5.46
2018-11-14T23:38:50.641Z,5.51
2018-11-14T23:41:19.034Z,5.53
2018-11-14T23:43:47.441Z,5.57
2018-11-14T23:46:15.846Z,5.59
2018-11-14T23:48:44.310Z,5.62
2018-11-14T23:51:12.707Z,5.58
2018-11-14T23:53:41.089Z,5.65
2018-11-14T23:56:09.515Z,5.60
2018-11-14T23:58:37.903Z,5.62
